Dimitris P — A8ZU5 — position and weather

sailwx.info

Track history (hours):
 
Tides and Currents Weather Stations Pressure Air Temp Water Temp Dewpoint Dewpoint Depression Visibility Wind Speed Wind Dir Waves Ship Positions

Dimitris P

Last reported at 2018-Jul-23 12:39 UTC. Time now 2018-Jul-23 13:53 UTC.
Position N 27°49' W 097°29'.

Length 274 m; draft 13.4 m.

Type: Ship. MMSI: 636015302.

Date/timePositionNaut miles runAvg speedWind from/ knotsBaromVisibWave heightAir tempDewpointWater temp
2018-Jul-23 12:39N 27°49' W 097°29'0 0.0
2018-Jul-23 12:25N 27°49' W 097°29'0 0.0
2018-Jul-23 11:45N 27°49' W 097°29'0 0.0
2018-Jul-23 08:51N 27°49' W 097°29'0 0.0
2018-Jul-23 06:54N 27°49' W 097°29'3 0.2
2018-Jul-22 14:59N 27°49' W 097°26'2 4.4
2018-Jul-22 14:30N 27°49' W 097°23'5 9.4
2018-Jul-22 14:00N 27°49' W 097°18'5 9.3
2018-Jul-22 13:30N 27°49' W 097°13'4 8.8
2018-Jul-22 13:00N 27°50' W 097°08'5 9.2
2018-Jul-22 12:31N 27°50' W 097°03'611.0
2018-Jul-22 12:00N 27°48' W 096°57'3 6.2
2018-Jul-22 11:30N 27°48' W 096°54'0 0.1
2018-Jul-22 10:33N 27°48' W 096°53'0 0.0
2018-Jul-22 10:09N 27°48' W 096°53'0 0.0
2018-Jul-22 10:00N 27°48' W 096°53'0 0.0
2018-Jul-22 09:30N 27°48' W 096°53'0 0.0
2018-Jul-22 09:00N 27°48' W 096°53'0 0.0
2018-Jul-22 03:27N 27°48' W 096°53'0 0.0
2018-Jul-22 01:36N 27°48' W 096°54'0 0.1
2018-Jul-22 01:30N 27°48' W 096°54'0 0.0
2018-Jul-21 14:50N 27°48' W 096°53'0 0.3
2018-Jul-21 14:17N 27°47' W 096°53'13 9.0
2018-Jul-21 12:47N 27°41' W 096°40'413.6
2018-Jul-21 12:30N 27°39' W 096°37'713.5
2018-Jul-21 12:00N 27°36' W 096°30'713.7
2018-Jul-21 11:30N 27°32' W 096°23'913.8
2018-Jul-21 10:52N 27°28' W 096°15'513.9
2018-Jul-21 10:29N 27°25' W 096°09'1713.5
2018-Jul-21 09:12N 27°17' W 095°52'413.9
2018-Jul-21 08:55N 27°15' W 095°48'714.2
2018-Jul-21 08:26N 27°12' W 095°42'714.8
2018-Jul-21 07:59N 27°08' W 095°35'715.1
2018-Jul-21 07:30N 27°05' W 095°28'815.2
2018-Jul-21 07:00N 27°01' W 095°21'915.2
2018-Jul-21 06:25N 26°57' W 095°12'715.0
2018-Jul-21 05:58N 26°54' W 095°05'714.9
2018-Jul-21 05:29N 26°50' W 094°58'815.0
2018-Jul-21 04:56N 26°46' W 094°50'715.0
2018-Jul-21 04:29N 26°43' W 094°43'715.0
2018-Jul-21 03:59N 26°40' W 094°36'1013.4
2018-Jul-21 03:16N 26°35' W 094°26'310.0
2018-Jul-21 02:59N 26°34' W 094°23'510.7
2018-Jul-21 02:29N 26°32' W 094°18'815.0
2018-Jul-21 01:56N 26°28' W 094°10'615.0
2018-Jul-21 01:30N 26°25' W 094°03'6314.8
2018-Jul-20 21:16N 26°01' W 092°59'414.4
2018-Jul-20 20:59N 25°60' W 092°55'  
2018-Jul-18 13:15N 25°24' W 079°37'312.6
2018-Jul-18 13:00N 25°28' W 079°37'612.6
2018-Jul-18 12:30N 25°34' W 079°36'612.7
2018-Jul-18 12:00N 25°40' W 079°34'612.7
2018-Jul-18 11:30N 25°46' W 079°32'1312.8
2018-Jul-18 10:29N 25°58' W 079°28'612.9
2018-Jul-18 10:00N 26°04' W 079°26'613.0
2018-Jul-18 09:30N 26°11' W 079°24'1713.6
2018-Jul-18 08:13N 26°19' W 079°07'515.3
2018-Jul-18 07:54N 26°17' W 079°02'  
Track history (hours):
 
Tides and Currents Weather Stations Pressure Air Temp Water Temp Dewpoint Dewpoint Depression Visibility Wind Speed Wind Dir Waves Ship Positions

Dimitris P

Last reported at 2018-Jul-23 12:39 UTC. Time now 2018-Jul-23 13:53 UTC.
Position N 27°49' W 097°29'.

Length 274 m; draft 13.4 m.

Type: Ship. MMSI: 636015302.

Date/timePositionNaut miles runAvg speedWind from/ knotsBaromVisibWave heightAir tempDewpointWater temp
2018-Jul-23 12:39N 27°49' W 097°29'0 0.0
2018-Jul-23 12:25N 27°49' W 097°29'0 0.0
2018-Jul-23 11:45N 27°49' W 097°29'0 0.0
2018-Jul-23 08:51N 27°49' W 097°29'0 0.0
2018-Jul-23 06:54N 27°49' W 097°29'3 0.2
2018-Jul-22 14:59N 27°49' W 097°26'2 4.4
2018-Jul-22 14:30N 27°49' W 097°23'5 9.4
2018-Jul-22 14:00N 27°49' W 097°18'5 9.3
2018-Jul-22 13:30N 27°49' W 097°13'4 8.8
2018-Jul-22 13:00N 27°50' W 097°08'5 9.2
2018-Jul-22 12:31N 27°50' W 097°03'611.0
2018-Jul-22 12:00N 27°48' W 096°57'3 6.2
2018-Jul-22 11:30N 27°48' W 096°54'0 0.1
2018-Jul-22 10:33N 27°48' W 096°53'0 0.0
2018-Jul-22 10:09N 27°48' W 096°53'0 0.0
2018-Jul-22 10:00N 27°48' W 096°53'0 0.0
2018-Jul-22 09:30N 27°48' W 096°53'0 0.0
2018-Jul-22 09:00N 27°48' W 096°53'0 0.0
2018-Jul-22 03:27N 27°48' W 096°53'0 0.0
2018-Jul-22 01:36N 27°48' W 096°54'0 0.1
2018-Jul-22 01:30N 27°48' W 096°54'0 0.0
2018-Jul-21 14:50N 27°48' W 096°53'0 0.3
2018-Jul-21 14:17N 27°47' W 096°53'13 9.0
2018-Jul-21 12:47N 27°41' W 096°40'413.6
2018-Jul-21 12:30N 27°39' W 096°37'713.5
2018-Jul-21 12:00N 27°36' W 096°30'713.7
2018-Jul-21 11:30N 27°32' W 096°23'913.8
2018-Jul-21 10:52N 27°28' W 096°15'513.9
2018-Jul-21 10:29N 27°25' W 096°09'1713.5
2018-Jul-21 09:12N 27°17' W 095°52'413.9
2018-Jul-21 08:55N 27°15' W 095°48'714.2
2018-Jul-21 08:26N 27°12' W 095°42'714.8
2018-Jul-21 07:59N 27°08' W 095°35'715.1
2018-Jul-21 07:30N 27°05' W 095°28'815.2
2018-Jul-21 07:00N 27°01' W 095°21'915.2
2018-Jul-21 06:25N 26°57' W 095°12'715.0
2018-Jul-21 05:58N 26°54' W 095°05'714.9
2018-Jul-21 05:29N 26°50' W 094°58'815.0
2018-Jul-21 04:56N 26°46' W 094°50'715.0
2018-Jul-21 04:29N 26°43' W 094°43'715.0
2018-Jul-21 03:59N 26°40' W 094°36'1013.4
2018-Jul-21 03:16N 26°35' W 094°26'310.0
2018-Jul-21 02:59N 26°34' W 094°23'510.7
2018-Jul-21 02:29N 26°32' W 094°18'815.0
2018-Jul-21 01:56N 26°28' W 094°10'615.0
2018-Jul-21 01:30N 26°25' W 094°03'6314.8
2018-Jul-20 21:16N 26°01' W 092°59'414.4
2018-Jul-20 20:59N 25°60' W 092°55'  
2018-Jul-18 13:15N 25°24' W 079°37'312.6
2018-Jul-18 13:00N 25°28' W 079°37'612.6
2018-Jul-18 12:30N 25°34' W 079°36'612.7
2018-Jul-18 12:00N 25°40' W 079°34'612.7
2018-Jul-18 11:30N 25°46' W 079°32'1312.8
2018-Jul-18 10:29N 25°58' W 079°28'612.9
2018-Jul-18 10:00N 26°04' W 079°26'613.0
2018-Jul-18 09:30N 26°11' W 079°24'1713.6
2018-Jul-18 08:13N 26°19' W 079°07'515.3
2018-Jul-18 07:54N 26°17' W 079°02'  

Dump ship's entire track history